Time;durP1;ratioP1;P1;durP2;ratioP2;P2;SDS_P1;SDS_P2;PMS_P1;PMS_P2;Temp;Humidity;BMP_temperature;BMP_pressure;BME280_temperature;BME280_humidity;BME280_pressure;Samples;Min_cycle;Max_cycle;Signal;HPM_P1;HPM_P2
2023/07/07 00:02:17;;;;;;;11.85;6.30;;;;;;;23.71;44.90;102023.63;5002348;28;20045;-30
2023/07/07 00:04:44;;;;;;;10.57;6.53;;;;;;;23.70;45.49;102024.66;5005081;28;20100;-30
2023/07/07 00:07:10;;;;;;;9.10;5.53;;;;;;;23.68;45.46;102018.53;5004457;28;20405;-30
2023/07/07 00:09:37;;;;;;;9.98;6.40;;;;;;;23.65;45.68;102017.00;4998368;28;20144;-31
2023/07/07 00:12:04;;;;;;;10.98;6.95;;;;;;;23.63;45.59;102017.13;5004291;28;20054;-30
2023/07/07 00:14:31;;;;;;;10.02;6.25;;;;;;;23.61;45.34;102016.47;5003013;28;20214;-30
2023/07/07 00:17:01;;;;;;;11.45;6.18;;;;;;;23.59;45.33;102018.47;5002094;28;20108;-31
2023/07/07 00:19:32;;;;;;;11.88;6.40;;;;;;;23.58;45.37;102026.75;5003518;28;20050;-31
2023/07/07 00:22:00;;;;;;;9.35;6.22;;;;;;;23.56;45.47;102021.53;5002964;28;20057;-30
2023/07/07 00:24:27;;;;;;;9.10;5.88;;;;;;;23.53;45.48;102018.28;5000470;28;20045;-31
2023/07/07 00:26:54;;;;;;;11.48;6.57;;;;;;;23.52;45.20;102020.16;4999560;28;20054;-31
2023/07/07 00:29:21;;;;;;;9.25;6.07;;;;;;;23.49;45.81;102023.19;5001209;28;20694;-30
2023/07/07 00:31:47;;;;;;;10.05;6.68;;;;;;;23.49;45.52;102022.34;5001581;28;20046;-30
2023/07/07 00:34:14;;;;;;;12.23;6.55;;;;;;;23.47;45.53;102024.34;5002254;28;20908;-31
2023/07/07 00:36:40;;;;;;;9.15;5.80;;;;;;;23.45;45.86;102012.84;5005758;28;20053;-31
2023/07/07 00:39:07;;;;;;;9.40;6.43;;;;;;;23.43;46.03;102007.56;5002106;28;20053;-31
2023/07/07 00:41:34;;;;;;;10.63;6.90;;;;;;;23.40;46.12;102016.03;4999556;28;20488;-31
2023/07/07 00:44:02;;;;;;;11.13;6.03;;;;;;;23.39;46.09;102011.59;5001841;28;20081;-31
2023/07/07 00:46:28;;;;;;;9.50;6.13;;;;;;;23.37;46.08;102009.06;5001089;28;20054;-32
2023/07/07 00:48:59;;;;;;;12.30;7.60;;;;;;;23.36;45.89;102014.66;5001581;28;20330;-32
2023/07/07 00:51:56;;;;;;;10.70;6.50;;;;;;;23.34;45.86;102011.25;5003681;28;20085;-30
2023/07/07 00:54:28;;;;;;;10.30;6.70;;;;;;;23.33;46.13;102012.25;4995738;28;20042;-30
2023/07/07 00:56:55;;;;;;;10.27;6.47;;;;;;;23.32;45.96;102002.47;5001177;28;20430;-30
2023/07/07 00:59:28;;;;;;;10.35;6.57;;;;;;;23.30;46.26;102007.16;5002049;28;20378;-30
2023/07/07 01:01:58;;;;;;;10.45;6.72;;;;;;;23.28;45.86;101999.22;5001718;28;20054;-30
2023/07/07 01:04:27;;;;;;;8.88;6.22;;;;;;;23.26;46.02;102006.63;5002622;28;20104;-30
2023/07/07 01:07:01;;;;;;;10.35;6.82;;;;;;;23.26;46.02;101994.97;5002519;28;20050;-31
2023/07/07 01:09:28;;;;;;;11.82;7.65;;;;;;;23.24;46.15;101997.84;5002015;28;20049;-30
2023/07/07 01:11:54;;;;;;;11.35;7.32;;;;;;;23.22;46.38;101993.59;5000636;28;20418;-30
2023/07/07 01:14:24;;;;;;;10.35;6.15;;;;;;;23.21;46.43;101997.31;5000942;28;20038;-29
2023/07/07 01:16:57;;;;;;;11.40;6.78;;;;;;;23.19;46.44;101992.03;5003587;28;20327;-30
2023/07/07 01:19:53;;;;;;;10.98;6.97;;;;;;;23.17;46.65;101999.50;5004288;28;20077;-30
2023/07/07 01:22:47;;;;;;;12.45;6.72;;;;;;;23.15;46.95;101998.78;5004358;28;20406;-30
2023/07/07 01:25:55;;;;;;;9.95;6.88;;;;;;;23.13;46.58;102007.06;5000975;28;20093;-30
2023/07/07 01:28:34;;;;;;;11.93;7.40;;;;;;;23.13;46.45;102003.53;5002301;28;20050;-30
2023/07/07 01:31:28;;;;;;;9.13;5.90;;;;;;;23.12;46.80;102004.53;5004687;28;20414;-30
2023/07/07 01:33:55;;;;;;;;;;;;;;;23.08;46.33;102004.00;5003512;28;20061;-30
2023/07/07 01:36:21;;;;;;;9.30;5.97;;;;;;;23.11;46.28;102000.97;5001037;28;19953;-30
2023/07/07 01:38:48;;;;;;;10.38;6.30;;;;;;;23.09;46.92;102007.56;5000051;28;20153;-32
2023/07/07 01:41:32;;;;;;;9.95;6.63;;;;;;;23.04;46.78;101999.91;5003828;28;20133;-32
2023/07/07 01:44:24;;;;;;;9.75;6.28;;;;;;;23.04;46.52;102001.78;5001780;28;20108;-32
2023/07/07 01:46:57;;;;;;;9.07;5.78;;;;;;;23.02;46.54;102001.91;5000189;28;20100;-30
2023/07/07 01:49:30;;;;;;;9.30;6.07;;;;;;;23.02;46.75;102001.91;5002257;28;20086;-30
2023/07/07 01:52:08;;;;;;;9.85;6.57;;;;;;;22.99;46.87;102002.22;4999393;28;20055;-31
2023/07/07 01:54:38;;;;;;;8.88;6.20;;;;;;;23.01;46.78;102008.34;4997502;28;20125;-30
2023/07/07 01:57:07;;;;;;;10.20;6.43;;;;;;;22.99;46.76;102004.09;4998993;28;20133;-31
2023/07/07 01:59:34;;;;;;;9.68;6.20;;;;;;;22.98;46.73;101997.84;4997822;28;20081;-30
2023/07/07 02:02:01;;;;;;;8.07;5.45;;;;;;;22.97;46.61;101998.00;5003901;28;20056;-30
2023/07/07 02:04:28;;;;;;;11.50;6.45;;;;;;;22.95;47.21;102000.84;5005757;28;20077;-30
2023/07/07 02:06:54;;;;;;;9.60;5.88;;;;;;;22.95;46.70;101994.59;5002464;28;20087;-31
2023/07/07 02:09:21;;;;;;;9.82;5.90;;;;;;;22.94;47.16;101993.75;5001267;28;20072;-31
2023/07/07 02:11:48;;;;;;;7.57;5.22;;;;;;;22.93;46.66;101986.66;5001686;28;20054;-31
2023/07/07 02:14:14;;;;;;;7.63;5.25;;;;;;;22.92;46.97;101993.06;5006998;28;20234;-32
2023/07/07 02:16:41;;;;;;;8.43;5.55;;;;;;;22.91;47.26;101988.66;5004707;28;20165;-32
2023/07/07 02:19:07;;;;;;;9.38;6.30;;;;;;;22.90;46.88;101985.09;5003739;28;20149;-32
2023/07/07 02:21:34;;;;;;;8.35;5.38;;;;;;;22.89;46.91;101987.94;5004489;28;20191;-32
2023/07/07 02:24:01;;;;;;;8.45;5.47;;;;;;;22.89;46.89;101993.34;5003053;28;20079;-29
2023/07/07 02:26:28;;;;;;;8.93;5.93;;;;;;;22.88;47.00;101995.22;5003948;28;20315;-29
2023/07/07 02:28:55;;;;;;;9.50;6.00;;;;;;;22.87;47.09;101990.81;5001504;28;20687;-29
2023/07/07 02:31:24;;;;;;;7.90;5.72;;;;;;;22.86;47.10;101986.41;5000750;28;20058;-29
2023/07/07 02:33:52;;;;;;;9.88;5.35;;;;;;;22.85;46.89;101990.13;5000770;28;20050;-32
2023/07/07 02:36:19;;;;;;;7.90;5.10;;;;;;;22.85;47.35;101991.97;5000596;28;20054;-32
2023/07/07 02:38:46;;;;;;;8.43;5.20;;;;;;;22.83;47.45;101996.66;5003246;28;20050;-32
2023/07/07 02:41:12;;;;;;;8.50;5.25;;;;;;;22.83;46.93;101993.97;5004044;28;20105;-32
2023/07/07 02:43:40;;;;;;;7.38;4.78;;;;;;;22.82;47.29;101994.97;5003768;28;20077;-32
2023/07/07 02:46:07;;;;;;;7.30;5.05;;;;;;;22.80;47.31;101995.16;4999245;28;20046;-31
2023/07/07 02:48:33;;;;;;;8.13;5.03;;;;;;;22.81;47.03;101998.69;5003770;28;20563;-32
2023/07/07 02:51:02;;;;;;;7.13;4.85;;;;;;;22.81;47.28;102004.09;5005699;28;20053;-30
2023/07/07 02:53:32;;;;;;;6.68;4.25;;;;;;;22.80;47.36;102003.25;5004864;28;20049;-32
2023/07/07 02:55:59;;;;;;;8.65;4.90;;;;;;;22.79;47.46;102006.94;5007613;28;20081;-32
2023/07/07 02:58:26;;;;;;;7.60;5.10;;;;;;;22.78;47.44;102007.13;5007435;28;20595;-32
2023/07/07 03:00:53;;;;;;;7.65;5.25;;;;;;;22.77;47.46;102014.38;5005976;28;20073;-32
2023/07/07 03:03:24;;;;;;;7.78;5.07;;;;;;;22.76;47.49;102014.53;5004311;28;20128;-32
2023/07/07 03:05:51;;;;;;;8.48;5.13;;;;;;;22.76;47.30;102015.41;5004649;28;20381;-32
2023/07/07 03:08:18;;;;;;;7.97;5.05;;;;;;;22.75;47.26;102008.25;5001959;28;20132;-33
2023/07/07 03:10:44;;;;;;;8.52;5.15;;;;;;;22.74;47.55;102011.97;5003793;28;20125;-32
2023/07/07 03:13:12;;;;;;;6.53;4.38;;;;;;;22.74;47.18;102011.97;5005152;28;20050;-31
2023/07/07 03:15:39;;;;;;;7.25;5.43;;;;;;;22.74;47.35;102011.13;4999743;28;20057;-32
2023/07/07 03:18:07;;;;;;;6.90;4.82;;;;;;;22.73;47.57;102009.44;5002621;28;20457;-32
2023/07/07 03:20:35;;;;;;;7.47;5.00;;;;;;;22.72;47.25;102014.00;5003740;28;20089;-32
2023/07/07 03:23:03;;;;;;;7.10;4.70;;;;;;;22.71;47.25;102006.03;4999074;28;20433;-31
2023/07/07 03:25:30;;;;;;;6.90;4.25;;;;;;;22.71;47.35;102003.34;5000437;28;20046;-32
2023/07/07 03:27:57;;;;;;;5.97;4.20;;;;;;;22.69;47.36;102000.81;5001703;28;20177;-32
2023/07/07 03:30:25;;;;;;;6.93;4.43;;;;;;;22.69;47.40;102003.50;5001230;28;20116;-32
2023/07/07 03:32:51;;;;;;;7.40;4.47;;;;;;;22.68;47.62;102009.91;5002317;28;20104;-32
2023/07/07 03:35:19;;;;;;;7.53;4.80;;;;;;;22.68;47.42;102012.63;5002056;28;20069;-29
2023/07/07 03:37:45;;;;;;;6.30;4.25;;;;;;;22.67;47.54;102008.19;5000715;28;20134;-31
2023/07/07 03:40:12;;;;;;;5.35;3.88;;;;;;;22.67;47.82;102006.38;4999766;28;20140;-31
2023/07/07 03:42:39;;;;;;;6.13;4.07;;;;;;;22.67;47.49;102011.78;5001598;28;20042;-31
2023/07/07 03:45:06;;;;;;;7.63;4.20;;;;;;;22.67;47.36;102016.31;5000297;28;20052;-32
2023/07/07 03:47:32;;;;;;;6.07;3.97;;;;;;;22.67;47.58;102013.59;5004293;28;20045;-30
2023/07/07 03:49:59;;;;;;;5.72;4.13;;;;;;;22.66;47.53;102015.47;5001599;28;20072;-30
2023/07/07 03:52:26;;;;;;;6.43;4.07;;;;;;;22.65;47.81;102011.06;5004714;28;20137;-30
2023/07/07 03:54:52;;;;;;;6.95;4.25;;;;;;;22.64;47.52;102014.78;4999513;28;20389;-30
2023/07/07 03:57:19;;;;;;;6.90;3.83;;;;;;;22.65;47.88;102010.22;5004675;28;20089;-30
2023/07/07 03:59:46;;;;;;;5.43;3.67;;;;;;;22.65;48.02;102012.94;5001633;28;20505;-29
2023/07/07 04:02:12;;;;;;;7.28;4.13;;;;;;;22.65;47.46;102026.44;5003076;28;20042;-30
2023/07/07 04:04:39;;;;;;;4.65;3.25;;;;;;;22.65;47.89;102016.47;5002796;28;20155;-30
2023/07/07 04:07:06;;;;;;;6.32;4.00;;;;;;;22.64;47.57;102025.59;5000378;28;20111;-29
2023/07/07 04:09:32;;;;;;;6.72;4.03;;;;;;;22.64;47.52;102025.59;4997097;28;20124;-30
2023/07/07 04:11:59;;;;;;;5.28;3.50;;;;;;;22.65;47.54;102024.59;5004627;28;20073;-31
2023/07/07 04:14:27;;;;;;;5.47;3.58;;;;;;;22.65;47.92;102019.19;4999360;28;20088;-30
2023/07/07 04:16:54;;;;;;;6.15;4.05;;;;;;;22.65;47.42;102023.75;5002792;28;20046;-30
2023/07/07 04:19:21;;;;;;;5.55;3.33;;;;;;;22.65;47.99;102026.44;5001920;28;20078;-30
2023/07/07 04:21:48;;;;;;;7.35;3.70;;;;;;;22.65;47.60;102030.00;5003902;28;20073;-30
2023/07/07 04:24:20;;;;;;;6.28;3.72;;;;;;;22.65;47.85;102026.44;4998949;28;20399;-30
2023/07/07 04:26:47;;;;;;;5.78;3.33;;;;;;;22.65;47.58;102016.47;5004707;28;20485;-30
2023/07/07 04:29:14;;;;;;;5.35;3.40;;;;;;;22.66;48.00;102026.28;5004492;28;20058;-30
2023/07/07 04:31:45;;;;;;;4.47;3.45;;;;;;;22.66;47.99;102026.28;4996542;28;20173;-30
2023/07/07 04:34:16;;;;;;;6.38;3.30;;;;;;;22.67;47.81;102027.13;5002645;28;20055;-30
2023/07/07 04:36:43;;;;;;;4.90;3.40;;;;;;;22.67;47.90;102029.81;5003024;28;20088;-30
2023/07/07 04:39:12;;;;;;;6.45;3.33;;;;;;;22.67;47.77;102030.69;5000971;28;20101;-31
2023/07/07 04:41:38;;;;;;;6.53;3.38;;;;;;;22.67;47.95;102033.41;5002038;28;20470;-31
2023/07/07 04:44:05;;;;;;;4.95;3.30;;;;;;;22.69;47.30;102035.09;5004831;28;20053;-30
2023/07/07 04:46:33;;;;;;;5.50;3.55;;;;;;;22.70;47.42;102036.78;5005295;28;20549;-30
2023/07/07 04:49:06;;;;;;;4.55;3.30;;;;;;;22.71;47.51;102039.31;5003125;28;20101;-30
2023/07/07 04:51:38;;;;;;;4.03;3.00;;;;;;;22.72;47.94;102037.50;5003061;28;20042;-30
2023/07/07 04:54:07;;;;;;;4.90;3.05;;;;;;;22.73;47.40;102025.66;5000465;28;20054;-31
2023/07/07 04:56:33;;;;;;;4.15;3.20;;;;;;;22.74;47.55;102019.25;4999798;28;20501;-31
2023/07/07 04:59:00;;;;;;;4.95;2.95;;;;;;;22.74;47.52;102022.78;5006088;28;20077;-31
2023/07/07 05:01:29;;;;;;;5.13;3.15;;;;;;;22.76;47.59;102019.94;5000510;28;20050;-31
2023/07/07 05:04:01;;;;;;;6.45;3.20;;;;;;;22.76;47.39;102023.50;5004591;28;20430;-32
2023/07/07 05:06:33;;;;;;;4.05;2.80;;;;;;;22.79;47.63;102022.31;5001421;28;20046;-31
2023/07/07 05:09:01;;;;;;;5.72;3.72;;;;;;;22.80;47.29;102013.22;4995071;28;20366;-31
2023/07/07 05:11:29;;;;;;;4.47;3.10;;;;;;;22.84;47.62;102025.44;4995984;28;20367;-31
2023/07/07 05:13:56;;;;;;;4.43;2.70;;;;;;;22.84;47.62;102034.38;5002111;28;20095;-31
2023/07/07 05:16:25;;;;;;;3.80;2.70;;;;;;;22.86;47.68;102026.94;4999598;28;20045;-32
2023/07/07 05:18:53;;;;;;;4.70;2.78;;;;;;;22.88;47.67;102024.09;5001691;28;20057;-31
2023/07/07 05:21:22;;;;;;;4.45;3.17;;;;;;;22.91;47.92;102023.78;5002355;28;20045;-31
2023/07/07 05:23:51;;;;;;;5.07;3.05;;;;;;;22.93;47.51;102031.78;4998628;28;20050;-31
2023/07/07 05:26:19;;;;;;;3.88;2.58;;;;;;;22.95;47.40;102024.34;5004967;28;20046;-31
2023/07/07 05:28:46;;;;;;;4.22;2.90;;;;;;;22.97;47.44;102033.16;5001464;28;20046;-31
2023/07/07 05:31:13;;;;;;;5.13;3.05;;;;;;;22.99;47.65;102034.69;5002283;28;20132;-30
2023/07/07 05:33:39;;;;;;;4.93;3.00;;;;;;;23.02;47.51;102041.63;5003361;28;20145;-31
2023/07/07 05:36:10;;;;;;;3.03;2.28;;;;;;;23.06;47.37;102043.00;5007549;28;20045;-31
2023/07/07 05:38:39;;;;;;;5.07;2.50;;;;;;;23.08;47.61;102043.72;5001826;28;20046;-31
2023/07/07 05:41:06;;;;;;;4.25;2.85;;;;;;;23.11;47.50;102046.09;5001482;28;20077;-31
2023/07/07 05:43:35;;;;;;;5.40;2.70;;;;;;;23.12;47.36;102048.66;5004934;28;20658;-31
2023/07/07 05:46:04;;;;;;;3.38;2.50;;;;;;;23.15;47.19;102044.75;5004836;28;20496;-31
2023/07/07 05:48:31;;;;;;;5.50;2.72;;;;;;;23.17;47.32;102044.63;5004788;28;20050;-31
2023/07/07 05:51:00;;;;;;;3.60;2.63;;;;;;;23.19;47.60;102039.88;5002731;28;20284;-31
2023/07/07 05:53:27;;;;;;;3.78;2.60;;;;;;;23.21;47.32;102046.00;4999532;28;20148;-32
2023/07/07 05:56:06;;;;;;;4.13;2.33;;;;;;;23.22;47.21;102047.69;5008462;28;20109;-30
2023/07/07 05:58:34;;;;;;;3.72;2.75;;;;;;;23.23;47.13;102049.38;5001484;28;20049;-31
2023/07/07 06:01:02;;;;;;;4.72;2.95;;;;;;;23.23;47.16;102047.53;5003746;28;20058;-32
2023/07/07 06:03:30;;;;;;;3.33;2.25;;;;;;;23.24;46.98;102046.53;5002114;28;20144;-31
2023/07/07 06:05:56;;;;;;;6.60;2.53;;;;;;;23.26;47.21;102054.50;4999880;28;20393;-31
2023/07/07 06:08:23;;;;;;;7.95;2.72;;;;;;;23.26;47.09;102057.19;5002142;28;20148;-31
2023/07/07 06:10:50;;;;;;;43.97;10.02;;;;;;;23.27;46.79;102056.19;5002484;28;20418;-31
2023/07/07 06:13:17;;;;;;;42.15;9.38;;;;;;;23.26;46.30;102055.31;5003604;28;20061;-31
2023/07/07 06:15:45;;;;;;;26.05;8.18;;;;;;;23.27;46.23;102059.72;5005098;28;20046;-31
2023/07/07 06:18:12;;;;;;;19.35;7.40;;;;;;;23.26;45.66;102054.50;5030694;28;20485;-31
2023/07/07 06:20:38;;;;;;;12.80;5.88;;;;;;;23.25;45.90;102058.22;5004508;28;20050;-31
2023/07/07 06:23:08;;;;;;;16.48;6.47;;;;;;;23.25;45.51;102052.78;5000880;28;20372;-31
2023/07/07 06:25:34;;;;;;;12.93;5.45;;;;;;;23.24;45.34;102048.41;5004701;28;20050;-30
2023/07/07 06:28:01;;;;;;;12.38;5.13;;;;;;;23.24;45.21;102053.81;5003401;28;20050;-31
2023/07/07 06:30:28;;;;;;;10.43;4.88;;;;;;;23.22;44.91;102056.66;5003521;28;20069;-31
2023/07/07 06:32:58;;;;;;;10.68;4.95;;;;;;;23.23;45.14;102060.19;5003614;28;20050;-31
2023/07/07 06:35:26;;;;;;;6.63;3.55;;;;;;;23.22;44.74;102059.34;5002609;28;20327;-31
2023/07/07 06:37:53;;;;;;;11.00;4.13;;;;;;;23.22;44.76;102067.47;5000958;28;20077;-32
2023/07/07 06:40:19;;;;;;;7.30;3.78;;;;;;;23.23;44.46;102062.91;4999866;28;20050;-32
2023/07/07 06:42:46;;;;;;;8.30;3.60;;;;;;;23.23;44.51;102063.75;5002462;28;20129;-31
2023/07/07 06:45:13;;;;;;;8.48;3.58;;;;;;;23.22;44.54;102064.78;4996382;28;20078;-31
2023/07/07 06:47:39;;;;;;;8.30;3.08;;;;;;;23.23;44.65;102061.06;5000829;28;20140;-31
2023/07/07 06:50:06;;;;;;;5.43;3.00;;;;;;;23.22;44.26;102072.03;5002070;28;20453;-31
2023/07/07 06:52:33;;;;;;;7.38;3.30;;;;;;;23.21;43.58;102068.50;4998957;28;20121;-30
2023/07/07 06:54:59;;;;;;;6.13;3.05;;;;;;;23.21;43.60;102075.75;5005163;28;20046;-31
2023/07/07 06:57:26;;;;;;;6.28;2.60;;;;;;;23.19;42.99;102075.06;5000857;28;20517;-31
2023/07/07 06:59:52;;;;;;;4.78;3.17;;;;;;;23.17;42.77;102077.09;5006253;28;20050;-31
2023/07/07 07:02:19;;;;;;;8.23;3.10;;;;;;;23.15;43.15;102075.38;4998577;28;20054;-31
2023/07/07 07:04:46;;;;;;;6.28;3.05;;;;;;;23.15;42.60;102086.19;5007377;28;20049;-32
2023/07/07 07:07:12;;;;;;;5.80;2.72;;;;;;;23.15;42.58;102085.34;5000282;28;20305;-31
2023/07/07 07:09:39;;;;;;;7.55;3.20;;;;;;;23.17;43.12;102083.34;4971309;28;20050;-31
2023/07/07 07:12:07;;;;;;;6.68;2.97;;;;;;;23.18;42.70;102085.03;5046163;28;20060;-31
2023/07/07 07:14:33;;;;;;;7.35;3.03;;;;;;;23.19;42.74;102085.88;5025144;28;20057;-31
2023/07/07 07:17:00;;;;;;;6.03;2.58;;;;;;;23.19;42.99;102083.16;5028817;28;20119;-31
2023/07/07 07:19:26;;;;;;;5.70;2.60;;;;;;;23.20;42.48;102085.72;5027538;28;20075;-32
2023/07/07 07:21:53;;;;;;;5.45;2.90;;;;;;;23.22;43.36;102090.97;5033984;28;20053;-31
2023/07/07 07:24:24;;;;;;;7.68;3.05;;;;;;;23.20;42.81;102093.84;5028586;28;20093;-31
2023/07/07 07:26:50;;;;;;;7.43;2.78;;;;;;;23.22;42.45;102086.41;5026542;28;20334;-31
2023/07/07 07:29:17;;;;;;;7.05;2.80;;;;;;;23.22;42.94;102094.53;4998628;28;20059;-31
2023/07/07 07:31:43;;;;;;;6.35;3.20;;;;;;;23.23;42.48;102088.09;5033894;28;20127;-31
2023/07/07 07:34:24;;;;;;;10.90;3.13;;;;;;;23.24;42.80;102088.97;5002305;28;20062;-31
2023/07/07 07:36:51;;;;;;;6.07;2.80;;;;;;;23.27;42.41;102092.19;5012505;28;20127;-31
2023/07/07 07:39:19;;;;;;;8.77;3.17;;;;;;;23.28;42.41;102098.47;5014641;28;20089;-31
2023/07/07 07:41:48;;;;;;;5.75;2.45;;;;;;;23.29;42.40;102087.47;5009600;28;20111;-31
2023/07/07 07:44:16;;;;;;;5.65;2.80;;;;;;;23.32;42.74;102092.59;5003069;28;20112;-31
2023/07/07 07:46:44;;;;;;;5.72;2.47;;;;;;;23.33;42.30;102088.88;5038494;28;20361;-31
2023/07/07 07:49:11;;;;;;;5.85;2.65;;;;;;;23.35;42.60;102092.25;4982613;28;20064;-32
2023/07/07 07:51:39;;;;;;;5.28;2.20;;;;;;;23.37;42.49;102097.53;5045752;28;20056;-31
2023/07/07 07:54:11;;;;;;;5.82;2.95;;;;;;;23.38;42.58;102096.50;5029772;28;20057;-31
2023/07/07 07:56:39;;;;;;;5.70;2.55;;;;;;;23.41;42.12;102101.59;5027389;28;20054;-31
2023/07/07 07:59:07;;;;;;;7.70;2.40;;;;;;;23.43;42.25;102107.69;5025507;28;20068;-31
2023/07/07 08:01:33;;;;;;;5.30;2.53;;;;;;;23.44;42.34;102098.59;5020876;28;20441;-31
2023/07/07 08:04:02;;;;;;;13.45;3.10;;;;;;;23.45;42.08;102099.44;5029266;28;20187;-31
2023/07/07 08:06:29;;;;;;;6.90;2.35;;;;;;;23.47;42.03;102102.81;5035037;28;20052;-31
2023/07/07 08:08:55;;;;;;;11.30;2.63;;;;;;;23.48;42.39;102104.50;5001379;28;20118;-30
2023/07/07 08:11:53;;;;;;;4.75;2.17;;;;;;;23.48;41.88;102096.38;5034816;28;20092;-31
2023/07/07 08:14:22;;;;;;;5.03;2.42;;;;;;;23.53;42.32;102100.31;5026089;28;20080;-31
2023/07/07 08:16:51;;;;;;;6.10;2.25;;;;;;;23.54;42.30;102101.19;5024344;28;20128;-31
2023/07/07 08:19:18;;;;;;;8.05;2.63;;;;;;;23.56;42.54;102105.44;5030577;28;20464;-31
2023/07/07 08:21:46;;;;;;;6.50;2.47;;;;;;;23.58;42.16;102111.50;5030675;28;20051;-30
2023/07/07 08:24:13;;;;;;;6.18;2.42;;;;;;;23.59;42.13;102110.50;5019376;28;20385;-30
2023/07/07 08:26:40;;;;;;;6.00;2.20;;;;;;;23.63;42.65;102116.44;5012252;28;20462;-30
2023/07/07 08:29:07;;;;;;;3.70;2.38;;;;;;;23.63;42.21;102114.59;4990441;28;20512;-30
2023/07/07 08:31:34;;;;;;;6.20;2.42;;;;;;;23.67;42.54;102108.88;5005147;28;20644;-31
2023/07/07 08:34:02;;;;;;;9.75;2.88;;;;;;;23.68;42.44;102106.03;5010741;28;20191;-30
2023/07/07 08:36:29;;;;;;;5.43;2.28;;;;;;;23.70;41.96;102117.53;4998750;28;20053;-30
2023/07/07 08:39:16;;;;;;;5.45;2.10;;;;;;;23.71;41.84;102119.22;5005458;28;20045;-31
2023/07/07 08:41:50;;;;;;;7.53;2.10;;;;;;;23.76;42.41;102118.75;5001197;28;20045;-30
2023/07/07 08:44:22;;;;;;;7.47;2.17;;;;;;;23.77;42.50;102113.19;4997356;28;20057;-31
2023/07/07 08:46:55;;;;;;;6.63;1.92;;;;;;;23.80;41.98;102114.72;4997617;28;20054;-32
2023/07/07 08:49:39;;;;;;;4.53;1.98;;;;;;;23.80;41.96;102112.00;4992113;28;20092;-31
2023/07/07 08:52:37;;;;;;;4.88;2.17;;;;;;;23.84;42.12;102107.97;5015401;28;20470;-31
2023/07/07 08:55:30;;;;;;;7.15;2.33;;;;;;;23.86;41.77;102116.78;5004319;28;20430;-31
2023/07/07 08:58:12;;;;;;;2.35;1.73;;;;;;;23.88;42.32;102120.19;5002015;28;20058;-31
2023/07/07 09:01:09;;;;;;;4.55;1.83;;;;;;;23.91;41.77;102105.47;5008481;28;21022;-31
2023/07/07 09:03:49;;;;;;;5.03;2.22;;;;;;;23.94;41.37;102103.28;5004548;28;20323;-32
2023/07/07 09:06:24;;;;;;;4.15;1.88;;;;;;;23.98;41.13;102109.22;4999636;28;20442;-31
2023/07/07 09:08:57;;;;;;;7.32;2.55;;;;;;;23.99;41.36;102111.75;4999759;28;20182;-31
2023/07/07 09:11:42;;;;;;;7.22;2.22;;;;;;;24.00;40.59;102107.19;4985341;28;20087;-31
2023/07/07 09:14:11;;;;;;;6.97;2.13;;;;;;;24.03;40.91;102104.16;5005892;28;20426;-31
2023/07/07 09:16:40;;;;;;;6.45;2.03;;;;;;;24.05;41.00;102103.00;5001864;28;20104;-30
2023/07/07 09:19:21;;;;;;;3.45;1.67;;;;;;;24.06;40.68;102101.97;5006347;28;20065;-31
2023/07/07 09:21:55;;;;;;;2.97;1.73;;;;;;;24.08;40.42;102105.38;5019524;28;20103;-31
2023/07/07 09:24:39;;;;;;;4.28;1.98;;;;;;;24.11;40.44;102106.91;5015094;28;20100;-34
2023/07/07 09:27:12;;;;;;;6.40;1.83;;;;;;;24.15;40.77;102105.56;5010640;28;20089;-31
2023/07/07 09:29:39;;;;;;;6.55;2.92;;;;;;;24.19;40.70;102106.09;4970407;28;20057;-31
2023/07/07 09:32:10;;;;;;;6.05;2.55;;;;;;;24.23;40.01;102100.19;5024165;28;20085;-31
2023/07/07 09:34:39;;;;;;;5.15;2.15;;;;;;;24.28;39.64;102105.97;5012321;28;20226;-34
2023/07/07 09:37:11;;;;;;;3.60;1.80;;;;;;;24.33;39.37;102103.59;5012250;28;20103;-31
2023/07/07 09:39:47;;;;;;;3.95;2.20;;;;;;;24.39;39.68;102107.53;5012763;28;20551;-30
2023/07/07 09:42:22;;;;;;;5.28;1.98;;;;;;;24.45;38.35;102103.34;5003651;28;20073;-31
2023/07/07 09:45:10;;;;;;;3.97;1.55;;;;;;;24.51;38.60;102105.38;5006862;28;20049;-31
2023/07/07 09:47:42;;;;;;;5.00;1.83;;;;;;;24.55;38.02;102099.44;5003190;28;20457;-31
2023/07/07 09:50:23;;;;;;;4.20;1.70;;;;;;;24.61;38.05;102096.09;4982413;28;20739;-31
2023/07/07 09:53:01;;;;;;;3.58;1.77;;;;;;;24.67;37.93;102099.97;5014681;28;20093;-31
2023/07/07 09:55:47;;;;;;;4.90;1.50;;;;;;;24.73;38.01;102101.19;5014981;28;20081;-31
2023/07/07 09:58:19;;;;;;;3.40;1.88;;;;;;;24.76;38.03;102098.97;5011438;28;20057;-31
2023/07/07 10:00:51;;;;;;;2.95;1.48;;;;;;;24.80;37.58;102092.19;5010513;28;20058;-30
2023/07/07 10:03:42;;;;;;;2.75;1.42;;;;;;;24.85;37.06;102097.13;5008503;28;20053;-32
2023/07/07 10:06:42;;;;;;;2.58;1.85;;;;;;;24.90;36.98;102094.75;5010612;28;20058;-31
2023/07/07 10:09:12;;;;;;;4.55;1.88;;;;;;;24.96;37.06;102094.06;5011162;28;20117;-31
2023/07/07 10:11:41;;;;;;;3.45;1.70;;;;;;;24.99;37.09;102091.00;4993307;28;20196;-31
2023/07/07 10:14:14;;;;;;;4.35;1.58;;;;;;;25.02;36.96;102090.69;5011983;28;20057;-31
2023/07/07 10:16:51;;;;;;;4.43;1.90;;;;;;;25.04;36.01;102091.34;5009877;28;20407;-31
2023/07/07 10:19:19;;;;;;;6.03;1.90;;;;;;;25.08;36.53;102094.56;5010365;28;20054;-32
2023/07/07 10:21:47;;;;;;;4.32;1.63;;;;;;;25.09;36.29;102083.59;5012874;28;20045;-32
2023/07/07 10:24:15;;;;;;;4.88;2.03;;;;;;;25.13;36.44;102092.25;5009367;28;20414;-32
2023/07/07 10:26:45;;;;;;;3.45;1.83;;;;;;;25.16;36.64;102082.91;5010821;28;20106;-32
2023/07/07 10:29:16;;;;;;;5.07;1.58;;;;;;;25.18;36.30;102089.03;5005049;28;20320;-32
2023/07/07 10:31:46;;;;;;;4.18;1.85;;;;;;;25.22;36.68;102090.38;4983745;28;20084;-30
2023/07/07 10:34:46;;;;;;;3.97;2.00;;;;;;;25.23;35.35;102094.78;5008794;28;20057;-30
2023/07/07 10:37:19;;;;;;;3.20;1.80;;;;;;;25.26;36.58;102097.16;4997190;28;20053;-30
2023/07/07 10:39:58;;;;;;;2.30;1.50;;;;;;;25.28;35.39;102092.38;5006272;28;20058;-33
2023/07/07 10:42:26;;;;;;;6.00;2.20;;;;;;;25.30;35.91;102088.50;5009192;28;20060;-33
2023/07/07 10:44:57;;;;;;;3.10;1.77;;;;;;;25.32;35.77;102088.31;5004345;28;20067;-33
2023/07/07 10:47:35;;;;;;;4.40;2.00;;;;;;;25.33;34.97;102084.59;5009134;28;20488;-30
2023/07/07 10:50:11;;;;;;;5.63;2.10;;;;;;;25.36;35.56;102084.22;4975408;28;20557;-33
2023/07/07 10:52:58;;;;;;;4.65;2.20;;;;;;;25.39;35.74;102080.34;5020503;28;20053;-33
2023/07/07 10:55:47;;;;;;;5.85;2.10;;;;;;;25.42;34.80;102083.56;5004486;28;20080;-31
2023/07/07 10:58:36;;;;;;;2.63;1.67;;;;;;;25.45;35.50;102082.34;5010852;28;20057;-31
2023/07/07 11:01:14;;;;;;;3.90;1.80;;;;;;;25.49;34.83;102081.84;5010106;28;20085;-31
2023/07/07 11:04:10;;;;;;;4.45;2.35;;;;;;;25.51;34.72;102082.50;5011594;28;20057;-31
2023/07/07 11:07:05;;;;;;;3.70;1.95;;;;;;;25.53;34.49;102072.34;5005485;28;20073;-31
2023/07/07 11:10:00;;;;;;;3.75;1.90;;;;;;;25.57;34.03;102073.69;5004155;28;20448;-31
2023/07/07 11:12:49;;;;;;;2.95;1.70;;;;;;;25.62;34.71;102077.75;4994136;28;20140;-31
2023/07/07 11:15:39;;;;;;;3.30;2.03;;;;;;;25.64;33.95;102071.09;5012867;28;20046;-30
2023/07/07 11:18:32;;;;;;;3.60;2.03;;;;;;;25.68;33.84;102069.72;5008644;28;20587;-31
2023/07/07 11:21:13;;;;;;;4.72;1.98;;;;;;;25.72;33.99;102076.50;5011850;28;20076;-31
2023/07/07 11:23:54;;;;;;;4.63;1.80;;;;;;;25.75;34.22;102059.84;5007356;28;20049;-30
2023/07/07 11:26:36;;;;;;;3.15;1.55;;;;;;;25.77;34.01;102066.00;5005782;28;20050;-31
2023/07/07 11:29:15;;;;;;;2.88;2.03;;;;;;;25.81;33.86;102066.50;5008391;28;20409;-30
2023/07/07 11:32:01;;;;;;;5.10;1.98;;;;;;;25.84;34.14;102063.41;4979103;28;20056;-31
2023/07/07 11:34:28;;;;;;;3.55;1.73;;;;;;;25.86;33.55;102058.66;5010087;28;20103;-31
2023/07/07 11:37:31;;;;;;;3.08;2.05;;;;;;;25.86;32.55;102061.38;5004623;28;20049;-31
2023/07/07 11:40:22;;;;;;;4.53;1.85;;;;;;;25.89;32.25;102060.16;5013599;28;20085;-32
2023/07/07 11:42:48;;;;;;;2.60;1.60;;;;;;;25.91;33.02;102058.97;5006790;28;20080;-31
2023/07/07 11:45:48;;;;;;;6.97;2.55;;;;;;;25.92;32.07;102051.66;5012406;28;20046;-32